sensor_id;sensor_type;location;lat;lon;timestamp;P1;durP1;ratioP1;P2;durP2;ratioP2
14247;SDS011;7208;49.826;6.004;2023-04-03T00:01:03;2.40;;;1.60;;
14247;SDS011;7208;49.826;6.004;2023-04-03T00:03:29;1.80;;;1.20;;
14247;SDS011;7208;49.826;6.004;2023-04-03T00:05:55;2.27;;;1.50;;
14247;SDS011;7208;49.826;6.004;2023-04-03T00:08:21;1.57;;;1.47;;
14247;SDS011;7208;49.826;6.004;2023-04-03T00:10:47;1.60;;;1.50;;
14247;SDS011;7208;49.826;6.004;2023-04-03T00:13:13;1.30;;;1.20;;
14247;SDS011;7208;49.826;6.004;2023-04-03T00:15:40;1.20;;;1.10;;
14247;SDS011;7208;49.826;6.004;2023-04-03T00:18:06;1.83;;;1.73;;
14247;SDS011;7208;49.826;6.004;2023-04-03T00:20:33;1.30;;;1.20;;
14247;SDS011;7208;49.826;6.004;2023-04-03T00:22:59;1.40;;;1.30;;
14247;SDS011;7208;49.826;6.004;2023-04-03T00:25:25;0.83;;;0.83;;
14247;SDS011;7208;49.826;6.004;2023-04-03T00:27:51;2.20;;;1.47;;
14247;SDS011;7208;49.826;6.004;2023-04-03T00:30:18;1.10;;;1.00;;
14247;SDS011;7208;49.826;6.004;2023-04-03T00:32:45;1.30;;;1.20;;
14247;SDS011;7208;49.826;6.004;2023-04-03T00:35:11;1.00;;;1.00;;
14247;SDS011;7208;49.826;6.004;2023-04-03T00:37:40;1.00;;;1.00;;
14247;SDS011;7208;49.826;6.004;2023-04-03T00:40:06;3.93;;;1.07;;
14247;SDS011;7208;49.826;6.004;2023-04-03T00:42:33;1.47;;;1.13;;
14247;SDS011;7208;49.826;6.004;2023-04-03T00:47:29;1.40;;;1.30;;
14247;SDS011;7208;49.826;6.004;2023-04-03T00:49:55;2.33;;;1.60;;
14247;SDS011;7208;49.826;6.004;2023-04-03T00:52:23;1.30;;;1.07;;
14247;SDS011;7208;49.826;6.004;2023-04-03T00:54:51;1.87;;;1.50;;
14247;SDS011;7208;49.826;6.004;2023-04-03T00:57:19;1.23;;;1.20;;
14247;SDS011;7208;49.826;6.004;2023-04-03T00:59:48;0.90;;;0.90;;
14247;SDS011;7208;49.826;6.004;2023-04-03T01:02:15;1.67;;;1.10;;
14247;SDS011;7208;49.826;6.004;2023-04-03T01:04:42;2.73;;;1.10;;
14247;SDS011;7208;49.826;6.004;2023-04-03T01:09:35;1.23;;;0.80;;
14247;SDS011;7208;49.826;6.004;2023-04-03T01:12:15;1.03;;;1.00;;
14247;SDS011;7208;49.826;6.004;2023-04-03T01:14:42;1.33;;;0.97;;
14247;SDS011;7208;49.826;6.004;2023-04-03T01:17:27;0.90;;;0.90;;
14247;SDS011;7208;49.826;6.004;2023-04-03T01:22:28;1.87;;;1.33;;
14247;SDS011;7208;49.826;6.004;2023-04-03T01:24:56;1.20;;;1.10;;
14247;SDS011;7208;49.826;6.004;2023-04-03T01:27:22;2.47;;;1.10;;
14247;SDS011;7208;49.826;6.004;2023-04-03T01:29:48;1.23;;;1.20;;
14247;SDS011;7208;49.826;6.004;2023-04-03T01:32:14;2.83;;;1.20;;
14247;SDS011;7208;49.826;6.004;2023-04-03T01:34:40;1.50;;;1.33;;
14247;SDS011;7208;49.826;6.004;2023-04-03T01:37:06;1.80;;;1.70;;
14247;SDS011;7208;49.826;6.004;2023-04-03T01:39:32;1.73;;;1.60;;
14247;SDS011;7208;49.826;6.004;2023-04-03T01:41:58;3.70;;;2.33;;
14247;SDS011;7208;49.826;6.004;2023-04-03T01:44:24;1.40;;;1.30;;
14247;SDS011;7208;49.826;6.004;2023-04-03T01:46:50;1.20;;;1.20;;
14247;SDS011;7208;49.826;6.004;2023-04-03T01:49:16;0.90;;;0.90;;
14247;SDS011;7208;49.826;6.004;2023-04-03T01:51:43;0.80;;;0.80;;
14247;SDS011;7208;49.826;6.004;2023-04-03T01:54:09;0.80;;;0.80;;
14247;SDS011;7208;49.826;6.004;2023-04-03T01:56:35;0.80;;;0.80;;
14247;SDS011;7208;49.826;6.004;2023-04-03T01:59:01;1.00;;;0.87;;
14247;SDS011;7208;49.826;6.004;2023-04-03T02:01:27;1.20;;;1.10;;
14247;SDS011;7208;49.826;6.004;2023-04-03T02:03:53;2.43;;;0.90;;
14247;SDS011;7208;49.826;6.004;2023-04-03T02:06:19;1.87;;;1.00;;
14247;SDS011;7208;49.826;6.004;2023-04-03T02:08:45;1.20;;;1.10;;
14247;SDS011;7208;49.826;6.004;2023-04-03T02:11:11;0.80;;;0.80;;
14247;SDS011;7208;49.826;6.004;2023-04-03T02:13:37;0.87;;;0.80;;
14247;SDS011;7208;49.826;6.004;2023-04-03T02:16:07;1.23;;;0.90;;
14247;SDS011;7208;49.826;6.004;2023-04-03T02:18:34;1.23;;;1.13;;
14247;SDS011;7208;49.826;6.004;2023-04-03T02:21:00;0.97;;;0.97;;
14247;SDS011;7208;49.826;6.004;2023-04-03T02:23:26;4.20;;;1.47;;
14247;SDS011;7208;49.826;6.004;2023-04-03T02:25:52;1.30;;;1.20;;
14247;SDS011;7208;49.826;6.004;2023-04-03T02:28:18;1.93;;;1.53;;
14247;SDS011;7208;49.826;6.004;2023-04-03T02:30:44;3.17;;;1.50;;
14247;SDS011;7208;49.826;6.004;2023-04-03T02:33:10;3.47;;;2.20;;
14247;SDS011;7208;49.826;6.004;2023-04-03T02:35:36;2.40;;;1.57;;
14247;SDS011;7208;49.826;6.004;2023-04-03T02:38:02;3.13;;;1.97;;
14247;SDS011;7208;49.826;6.004;2023-04-03T02:40:28;2.50;;;2.30;;
14247;SDS011;7208;49.826;6.004;2023-04-03T02:42:54;3.17;;;2.00;;
14247;SDS011;7208;49.826;6.004;2023-04-03T02:45:20;2.30;;;2.10;;
14247;SDS011;7208;49.826;6.004;2023-04-03T02:47:46;1.50;;;1.40;;
14247;SDS011;7208;49.826;6.004;2023-04-03T02:50:12;2.27;;;1.87;;
14247;SDS011;7208;49.826;6.004;2023-04-03T02:52:38;1.33;;;1.23;;
14247;SDS011;7208;49.826;6.004;2023-04-03T02:55:05;2.10;;;1.90;;
14247;SDS011;7208;49.826;6.004;2023-04-03T02:57:31;2.67;;;1.70;;
14247;SDS011;7208;49.826;6.004;2023-04-03T02:59:57;1.80;;;1.70;;
14247;SDS011;7208;49.826;6.004;2023-04-03T03:02:23;5.00;;;2.80;;
14247;SDS011;7208;49.826;6.004;2023-04-03T03:04:49;1.53;;;1.40;;
14247;SDS011;7208;49.826;6.004;2023-04-03T03:07:15;1.70;;;1.27;;
14247;SDS011;7208;49.826;6.004;2023-04-03T03:09:41;2.77;;;1.10;;
14247;SDS011;7208;49.826;6.004;2023-04-03T03:12:07;1.03;;;1.03;;
14247;SDS011;7208;49.826;6.004;2023-04-03T03:14:33;0.77;;;0.77;;
14247;SDS011;7208;49.826;6.004;2023-04-03T03:16:59;1.50;;;1.40;;
14247;SDS011;7208;49.826;6.004;2023-04-03T03:19:25;2.73;;;1.07;;
14247;SDS011;7208;49.826;6.004;2023-04-03T03:21:51;3.60;;;1.17;;
14247;SDS011;7208;49.826;6.004;2023-04-03T03:24:17;1.43;;;1.20;;
14247;SDS011;7208;49.826;6.004;2023-04-03T03:26:43;2.67;;;1.07;;
14247;SDS011;7208;49.826;6.004;2023-04-03T03:29:09;2.57;;;1.20;;
14247;SDS011;7208;49.826;6.004;2023-04-03T03:31:35;0.90;;;0.90;;
14247;SDS011;7208;49.826;6.004;2023-04-03T03:34:01;1.60;;;1.47;;
14247;SDS011;7208;49.826;6.004;2023-04-03T03:36:27;3.07;;;1.30;;
14247;SDS011;7208;49.826;6.004;2023-04-03T03:38:53;1.17;;;0.90;;
14247;SDS011;7208;49.826;6.004;2023-04-03T03:41:19;1.13;;;1.13;;
14247;SDS011;7208;49.826;6.004;2023-04-03T03:43:45;1.90;;;1.20;;
14247;SDS011;7208;49.826;6.004;2023-04-03T03:46:11;1.60;;;1.50;;
14247;SDS011;7208;49.826;6.004;2023-04-03T03:48:37;2.47;;;1.50;;
14247;SDS011;7208;49.826;6.004;2023-04-03T03:51:03;2.07;;;1.97;;
14247;SDS011;7208;49.826;6.004;2023-04-03T03:53:29;2.43;;;1.43;;
14247;SDS011;7208;49.826;6.004;2023-04-03T03:55:55;1.50;;;1.40;;
14247;SDS011;7208;49.826;6.004;2023-04-03T03:58:21;1.20;;;1.10;;
14247;SDS011;7208;49.826;6.004;2023-04-03T04:00:47;1.20;;;1.20;;
14247;SDS011;7208;49.826;6.004;2023-04-03T04:03:13;1.20;;;1.20;;
14247;SDS011;7208;49.826;6.004;2023-04-03T04:05:39;1.17;;;1.17;;
14247;SDS011;7208;49.826;6.004;2023-04-03T04:08:05;1.10;;;1.00;;
14247;SDS011;7208;49.826;6.004;2023-04-03T04:10:32;3.37;;;1.70;;
14247;SDS011;7208;49.826;6.004;2023-04-03T04:12:58;2.20;;;1.20;;
14247;SDS011;7208;49.826;6.004;2023-04-03T04:15:24;1.30;;;1.20;;
14247;SDS011;7208;49.826;6.004;2023-04-03T04:17:51;1.70;;;1.60;;
14247;SDS011;7208;49.826;6.004;2023-04-03T04:20:17;1.53;;;1.43;;
14247;SDS011;7208;49.826;6.004;2023-04-03T04:22:42;1.10;;;1.10;;
14247;SDS011;7208;49.826;6.004;2023-04-03T04:25:09;3.40;;;1.40;;
14247;SDS011;7208;49.826;6.004;2023-04-03T04:27:35;1.70;;;1.37;;
14247;SDS011;7208;49.826;6.004;2023-04-03T04:30:02;1.10;;;1.10;;
14247;SDS011;7208;49.826;6.004;2023-04-03T04:32:28;1.43;;;1.33;;
14247;SDS011;7208;49.826;6.004;2023-04-03T04:34:54;1.30;;;1.30;;
14247;SDS011;7208;49.826;6.004;2023-04-03T04:37:20;1.60;;;1.50;;
14247;SDS011;7208;49.826;6.004;2023-04-03T04:39:46;1.00;;;1.00;;
14247;SDS011;7208;49.826;6.004;2023-04-03T04:42:12;1.53;;;1.40;;
14247;SDS011;7208;49.826;6.004;2023-04-03T04:44:38;1.60;;;1.50;;
14247;SDS011;7208;49.826;6.004;2023-04-03T04:47:05;1.97;;;1.77;;
14247;SDS011;7208;49.826;6.004;2023-04-03T04:49:31;3.43;;;3.17;;
14247;SDS011;7208;49.826;6.004;2023-04-03T04:51:57;7.97;;;7.27;;
14247;SDS011;7208;49.826;6.004;2023-04-03T04:54:23;5.20;;;4.80;;
14247;SDS011;7208;49.826;6.004;2023-04-03T04:56:49;2.87;;;2.67;;
14247;SDS011;7208;49.826;6.004;2023-04-03T04:59:15;2.57;;;1.60;;
14247;SDS011;7208;49.826;6.004;2023-04-03T05:01:41;1.40;;;1.30;;
14247;SDS011;7208;49.826;6.004;2023-04-03T05:04:07;1.37;;;1.27;;
14247;SDS011;7208;49.826;6.004;2023-04-03T05:06:34;1.50;;;1.40;;
14247;SDS011;7208;49.826;6.004;2023-04-03T05:09:00;1.47;;;1.37;;
14247;SDS011;7208;49.826;6.004;2023-04-03T05:11:26;1.03;;;0.93;;
14247;SDS011;7208;49.826;6.004;2023-04-03T05:13:52;0.93;;;0.93;;
14247;SDS011;7208;49.826;6.004;2023-04-03T05:16:18;1.10;;;1.10;;
14247;SDS011;7208;49.826;6.004;2023-04-03T05:18:44;1.60;;;1.47;;
14247;SDS011;7208;49.826;6.004;2023-04-03T05:21:10;0.90;;;0.90;;
14247;SDS011;7208;49.826;6.004;2023-04-03T05:23:36;3.47;;;1.03;;
14247;SDS011;7208;49.826;6.004;2023-04-03T05:26:02;2.10;;;1.13;;
14247;SDS011;7208;49.826;6.004;2023-04-03T05:28:28;1.00;;;1.00;;
14247;SDS011;7208;49.826;6.004;2023-04-03T05:30:58;1.10;;;1.10;;
14247;SDS011;7208;49.826;6.004;2023-04-03T05:33:24;1.17;;;1.13;;
14247;SDS011;7208;49.826;6.004;2023-04-03T05:35:51;1.03;;;1.03;;
14247;SDS011;7208;49.826;6.004;2023-04-03T05:38:17;1.20;;;1.20;;
14247;SDS011;7208;49.826;6.004;2023-04-03T05:40:43;1.10;;;1.00;;
14247;SDS011;7208;49.826;6.004;2023-04-03T05:43:09;1.33;;;1.23;;
14247;SDS011;7208;49.826;6.004;2023-04-03T05:45:35;1.80;;;1.30;;
14247;SDS011;7208;49.826;6.004;2023-04-03T05:48:01;1.70;;;1.40;;
14247;SDS011;7208;49.826;6.004;2023-04-03T05:50:27;1.10;;;1.00;;
14247;SDS011;7208;49.826;6.004;2023-04-03T05:52:55;1.30;;;1.20;;
14247;SDS011;7208;49.826;6.004;2023-04-03T05:55:23;1.17;;;1.17;;
14247;SDS011;7208;49.826;6.004;2023-04-03T05:57:49;2.67;;;1.23;;
14247;SDS011;7208;49.826;6.004;2023-04-03T06:00:15;0.80;;;0.80;;
14247;SDS011;7208;49.826;6.004;2023-04-03T06:02:42;0.90;;;0.90;;
14247;SDS011;7208;49.826;6.004;2023-04-03T06:05:08;1.00;;;1.00;;
14247;SDS011;7208;49.826;6.004;2023-04-03T06:07:36;1.80;;;1.20;;
14247;SDS011;7208;49.826;6.004;2023-04-03T06:10:02;1.17;;;1.10;;
14247;SDS011;7208;49.826;6.004;2023-04-03T06:12:28;1.20;;;1.20;;
14247;SDS011;7208;49.826;6.004;2023-04-03T06:14:54;1.50;;;1.40;;
14247;SDS011;7208;49.826;6.004;2023-04-03T06:17:20;1.43;;;0.83;;
14247;SDS011;7208;49.826;6.004;2023-04-03T06:19:47;0.83;;;0.83;;
14247;SDS011;7208;49.826;6.004;2023-04-03T06:22:13;1.20;;;1.10;;
14247;SDS011;7208;49.826;6.004;2023-04-03T06:24:39;2.40;;;1.13;;
14247;SDS011;7208;49.826;6.004;2023-04-03T06:27:05;1.60;;;1.50;;
14247;SDS011;7208;49.826;6.004;2023-04-03T06:29:32;1.97;;;0.90;;
14247;SDS011;7208;49.826;6.004;2023-04-03T06:31:58;1.53;;;1.43;;
14247;SDS011;7208;49.826;6.004;2023-04-03T06:34:24;1.97;;;1.30;;
14247;SDS011;7208;49.826;6.004;2023-04-03T06:36:50;1.47;;;1.37;;
14247;SDS011;7208;49.826;6.004;2023-04-03T06:39:17;1.03;;;1.03;;
14247;SDS011;7208;49.826;6.004;2023-04-03T06:41:45;1.60;;;0.90;;
14247;SDS011;7208;49.826;6.004;2023-04-03T06:44:11;1.03;;;1.03;;
14247;SDS011;7208;49.826;6.004;2023-04-03T06:46:40;2.43;;;1.27;;
14247;SDS011;7208;49.826;6.004;2023-04-03T06:49:06;3.87;;;1.13;;
14247;SDS011;7208;49.826;6.004;2023-04-03T06:51:33;0.80;;;0.80;;
14247;SDS011;7208;49.826;6.004;2023-04-03T06:53:59;3.43;;;1.30;;
14247;SDS011;7208;49.826;6.004;2023-04-03T06:56:25;1.13;;;0.97;;
14247;SDS011;7208;49.826;6.004;2023-04-03T06:58:52;1.77;;;1.23;;
14247;SDS011;7208;49.826;6.004;2023-04-03T07:01:20;2.10;;;1.17;;
14247;SDS011;7208;49.826;6.004;2023-04-03T07:03:46;1.10;;;1.10;;
14247;SDS011;7208;49.826;6.004;2023-04-03T07:06:13;2.27;;;1.17;;
14247;SDS011;7208;49.826;6.004;2023-04-03T07:08:40;2.50;;;0.90;;
14247;SDS011;7208;49.826;6.004;2023-04-03T07:11:07;1.80;;;0.80;;
14247;SDS011;7208;49.826;6.004;2023-04-03T07:13:33;1.03;;;0.90;;
14247;SDS011;7208;49.826;6.004;2023-04-03T07:15:59;2.20;;;1.10;;
14247;SDS011;7208;49.826;6.004;2023-04-03T07:18:26;1.40;;;1.00;;
14247;SDS011;7208;49.826;6.004;2023-04-03T07:20:52;1.07;;;0.97;;
14247;SDS011;7208;49.826;6.004;2023-04-03T07:23:18;3.37;;;0.87;;
14247;SDS011;7208;49.826;6.004;2023-04-03T07:25:45;1.00;;;1.00;;
14247;SDS011;7208;49.826;6.004;2023-04-03T07:28:11;1.00;;;0.90;;
14247;SDS011;7208;49.826;6.004;2023-04-03T07:30:44;0.80;;;0.80;;
14247;SDS011;7208;49.826;6.004;2023-04-03T07:33:11;2.83;;;0.90;;
14247;SDS011;7208;49.826;6.004;2023-04-03T07:35:38;3.13;;;1.00;;
14247;SDS011;7208;49.826;6.004;2023-04-03T07:38:04;1.07;;;0.97;;
14247;SDS011;7208;49.826;6.004;2023-04-03T07:40:30;1.10;;;1.00;;
14247;SDS011;7208;49.826;6.004;2023-04-03T07:42:56;0.90;;;0.90;;
14247;SDS011;7208;49.826;6.004;2023-04-03T07:45:22;1.33;;;0.77;;
14247;SDS011;7208;49.826;6.004;2023-04-03T07:47:48;1.33;;;1.00;;
14247;SDS011;7208;49.826;6.004;2023-04-03T07:50:14;1.47;;;0.90;;
14247;SDS011;7208;49.826;6.004;2023-04-03T07:52:41;1.27;;;0.80;;
14247;SDS011;7208;49.826;6.004;2023-04-03T07:55:07;1.60;;;0.90;;
14247;SDS011;7208;49.826;6.004;2023-04-03T07:57:33;1.47;;;0.90;;
14247;SDS011;7208;49.826;6.004;2023-04-03T08:00:00;1.20;;;0.77;;
14247;SDS011;7208;49.826;6.004;2023-04-03T08:02:26;3.33;;;1.23;;
14247;SDS011;7208;49.826;6.004;2023-04-03T08:04:52;2.10;;;1.00;;
14247;SDS011;7208;49.826;6.004;2023-04-03T08:07:18;1.40;;;0.90;;
14247;SDS011;7208;49.826;6.004;2023-04-03T08:09:44;2.80;;;1.30;;
14247;SDS011;7208;49.826;6.004;2023-04-03T08:12:10;0.80;;;0.80;;
14247;SDS011;7208;49.826;6.004;2023-04-03T08:14:36;1.87;;;0.90;;
14247;SDS011;7208;49.826;6.004;2023-04-03T08:17:02;0.87;;;0.77;;
14247;SDS011;7208;49.826;6.004;2023-04-03T08:19:30;1.50;;;1.00;;
14247;SDS011;7208;49.826;6.004;2023-04-03T08:21:56;1.70;;;1.10;;
14247;SDS011;7208;49.826;6.004;2023-04-03T08:24:23;1.43;;;0.90;;
14247;SDS011;7208;49.826;6.004;2023-04-03T08:26:50;2.13;;;0.90;;
14247;SDS011;7208;49.826;6.004;2023-04-03T08:29:16;2.30;;;0.90;;
14247;SDS011;7208;49.826;6.004;2023-04-03T08:31:42;2.03;;;1.87;;
14247;SDS011;7208;49.826;6.004;2023-04-03T08:34:08;1.77;;;1.40;;
14247;SDS011;7208;49.826;6.004;2023-04-03T08:36:34;1.40;;;1.20;;
14247;SDS011;7208;49.826;6.004;2023-04-03T08:39:00;1.13;;;1.10;;
14247;SDS011;7208;49.826;6.004;2023-04-03T08:46:28;1.13;;;1.03;;
14247;SDS011;7208;49.826;6.004;2023-04-03T08:48:56;1.83;;;1.03;;
14247;SDS011;7208;49.826;6.004;2023-04-03T08:51:23;1.07;;;0.97;;
14247;SDS011;7208;49.826;6.004;2023-04-03T08:56:22;1.17;;;1.00;;
14247;SDS011;7208;49.826;6.004;2023-04-03T08:58:51;2.80;;;1.30;;
14247;SDS011;7208;49.826;6.004;2023-04-03T09:01:26;3.20;;;1.10;;
14247;SDS011;7208;49.826;6.004;2023-04-03T09:03:53;1.63;;;0.87;;
14247;SDS011;7208;49.826;6.004;2023-04-03T09:06:26;1.10;;;0.77;;
14247;SDS011;7208;49.826;6.004;2023-04-03T09:11:32;2.93;;;0.97;;
14247;SDS011;7208;49.826;6.004;2023-04-03T09:14:07;0.90;;;0.80;;
14247;SDS011;7208;49.826;6.004;2023-04-03T09:16:41;1.67;;;0.90;;
14247;SDS011;7208;49.826;6.004;2023-04-03T09:21:35;2.77;;;1.23;;
14247;SDS011;7208;49.826;6.004;2023-04-03T09:24:02;1.27;;;1.10;;
14247;SDS011;7208;49.826;6.004;2023-04-03T09:26:52;2.33;;;1.50;;
14247;SDS011;7208;49.826;6.004;2023-04-03T09:29:17;1.30;;;1.07;;
14247;SDS011;7208;49.826;6.004;2023-04-03T09:31:44;1.13;;;0.80;;
14247;SDS011;7208;49.826;6.004;2023-04-03T09:34:23;1.73;;;1.20;;
14247;SDS011;7208;49.826;6.004;2023-04-03T09:36:51;1.93;;;0.90;;
14247;SDS011;7208;49.826;6.004;2023-04-03T09:41:57;2.77;;;1.90;;
14247;SDS011;7208;49.826;6.004;2023-04-03T09:44:30;1.93;;;1.30;;
14247;SDS011;7208;49.826;6.004;2023-04-03T09:46:57;1.30;;;1.00;;
14247;SDS011;7208;49.826;6.004;2023-04-03T09:49:23;3.23;;;2.93;;
14247;SDS011;7208;49.826;6.004;2023-04-03T09:51:49;1.20;;;1.10;;
14247;SDS011;7208;49.826;6.004;2023-04-03T09:57:12;1.00;;;0.90;;
14247;SDS011;7208;49.826;6.004;2023-04-03T09:59:46;2.27;;;1.20;;
14247;SDS011;7208;49.826;6.004;2023-04-03T10:04:45;1.10;;;1.03;;
14247;SDS011;7208;49.826;6.004;2023-04-03T10:09:56;1.13;;;1.03;;
14247;SDS011;7208;49.826;6.004;2023-04-03T10:12:22;1.43;;;1.17;;
14247;SDS011;7208;49.826;6.004;2023-04-03T10:14:59;1.40;;;1.10;;
14247;SDS011;7208;49.826;6.004;2023-04-03T10:40:46;1.43;;;1.10;;
14247;SDS011;7208;49.826;6.004;2023-04-03T10:43:17;0.87;;;0.77;;
14247;SDS011;7208;49.826;6.004;2023-04-03T10:45:58;1.93;;;0.93;;
14247;SDS011;7208;49.826;6.004;2023-04-03T10:51:01;1.00;;;0.80;;
14247;SDS011;7208;49.826;6.004;2023-04-03T10:58:36;0.90;;;0.80;;
14247;SDS011;7208;49.826;6.004;2023-04-03T11:01:18;1.27;;;0.60;;
14247;SDS011;7208;49.826;6.004;2023-04-03T11:03:53;1.50;;;0.80;;
14247;SDS011;7208;49.826;6.004;2023-04-03T11:06:21;0.70;;;0.70;;
14247;SDS011;7208;49.826;6.004;2023-04-03T11:09:50;0.83;;;0.80;;
14247;SDS011;7208;49.826;6.004;2023-04-03T11:11:45;1.67;;;0.67;;
14247;SDS011;7208;49.826;6.004;2023-04-03T11:16:58;1.07;;;0.70;;
14247;SDS011;7208;49.826;6.004;2023-04-03T11:19:35;1.10;;;0.63;;
14247;SDS011;7208;49.826;6.004;2023-04-03T11:22:27;1.73;;;0.80;;
14247;SDS011;7208;49.826;6.004;2023-04-03T11:24:55;0.57;;;0.57;;
14247;SDS011;7208;49.826;6.004;2023-04-03T11:27:23;0.93;;;0.80;;
14247;SDS011;7208;49.826;6.004;2023-04-03T11:29:50;1.33;;;0.90;;
14247;SDS011;7208;49.826;6.004;2023-04-03T11:35:03;1.07;;;0.70;;
14247;SDS011;7208;49.826;6.004;2023-04-03T11:37:34;0.60;;;0.60;;
14247;SDS011;7208;49.826;6.004;2023-04-03T11:40:21;1.23;;;0.80;;
14247;SDS011;7208;49.826;6.004;2023-04-03T11:42:55;1.63;;;0.70;;
14247;SDS011;7208;49.826;6.004;2023-04-03T11:45:32;0.63;;;0.63;;
14247;SDS011;7208;49.826;6.004;2023-04-03T11:53:02;1.37;;;0.80;;
14247;SDS011;7208;49.826;6.004;2023-04-03T12:16:02;1.37;;;0.90;;
14247;SDS011;7208;49.826;6.004;2023-04-03T12:18:42;1.10;;;0.70;;
14247;SDS011;7208;49.826;6.004;2023-04-03T12:21:09;0.73;;;0.57;;
14247;SDS011;7208;49.826;6.004;2023-04-03T12:23:36;2.17;;;0.70;;
14247;SDS011;7208;49.826;6.004;2023-04-03T12:26:05;0.93;;;0.73;;
14247;SDS011;7208;49.826;6.004;2023-04-03T12:28:40;1.20;;;0.70;;
14247;SDS011;7208;49.826;6.004;2023-04-03T12:31:08;2.37;;;0.80;;
14247;SDS011;7208;49.826;6.004;2023-04-03T12:33:52;0.93;;;0.63;;
14247;SDS011;7208;49.826;6.004;2023-04-03T12:36:33;1.67;;;0.70;;
14247;SDS011;7208;49.826;6.004;2023-04-03T12:41:52;0.70;;;0.50;;
14247;SDS011;7208;49.826;6.004;2023-04-03T12:46:51;0.83;;;0.80;;
14247;SDS011;7208;49.826;6.004;2023-04-03T12:51:44;1.50;;;0.80;;
14247;SDS011;7208;49.826;6.004;2023-04-03T12:57:08;0.80;;;0.60;;
14247;SDS011;7208;49.826;6.004;2023-04-03T12:59:34;0.60;;;0.50;;
14247;SDS011;7208;49.826;6.004;2023-04-03T13:02:01;1.23;;;0.60;;
14247;SDS011;7208;49.826;6.004;2023-04-03T13:04:28;1.50;;;0.83;;
14247;SDS011;7208;49.826;6.004;2023-04-03T13:06:55;0.73;;;0.60;;
14247;SDS011;7208;49.826;6.004;2023-04-03T13:09:29;1.37;;;0.67;;
14247;SDS011;7208;49.826;6.004;2023-04-03T13:11:59;1.40;;;0.50;;
14247;SDS011;7208;49.826;6.004;2023-04-03T13:14:26;1.17;;;0.70;;
14247;SDS011;7208;49.826;6.004;2023-04-03T13:19:20;0.83;;;0.60;;
14247;SDS011;7208;49.826;6.004;2023-04-03T13:21:48;0.73;;;0.53;;
14247;SDS011;7208;49.826;6.004;2023-04-03T13:24:16;2.27;;;1.17;;
14247;SDS011;7208;49.826;6.004;2023-04-03T13:26:42;1.40;;;0.70;;
14247;SDS011;7208;49.826;6.004;2023-04-03T13:29:18;0.80;;;0.70;;
14247;SDS011;7208;49.826;6.004;2023-04-03T13:31:45;0.67;;;0.60;;
14247;SDS011;7208;49.826;6.004;2023-04-03T13:34:18;1.27;;;0.60;;
14247;SDS011;7208;49.826;6.004;2023-04-03T13:36:46;1.20;;;0.50;;
14247;SDS011;7208;49.826;6.004;2023-04-03T13:39:22;0.60;;;0.50;;
14247;SDS011;7208;49.826;6.004;2023-04-03T13:41:52;0.57;;;0.50;;
14247;SDS011;7208;49.826;6.004;2023-04-03T13:47:21;2.40;;;0.73;;
14247;SDS011;7208;49.826;6.004;2023-04-03T13:49:44;2.23;;;1.00;;
14247;SDS011;7208;49.826;6.004;2023-04-03T13:54:47;0.73;;;0.57;;
14247;SDS011;7208;49.826;6.004;2023-04-03T13:57:14;1.13;;;0.50;;
14247;SDS011;7208;49.826;6.004;2023-04-03T13:59:40;0.60;;;0.60;;
14247;SDS011;7208;49.826;6.004;2023-04-03T14:07:11;1.00;;;0.80;;
14247;SDS011;7208;49.826;6.004;2023-04-03T14:09:37;1.00;;;0.50;;
14247;SDS011;7208;49.826;6.004;2023-04-03T14:12:46;1.03;;;0.50;;
14247;SDS011;7208;49.826;6.004;2023-04-03T14:14:53;0.70;;;0.60;;
14247;SDS011;7208;49.826;6.004;2023-04-03T14:17:21;0.53;;;0.40;;
14247;SDS011;7208;49.826;6.004;2023-04-03T14:19:48;0.97;;;0.63;;
14247;SDS011;7208;49.826;6.004;2023-04-03T14:22:23;0.40;;;0.40;;
14247;SDS011;7208;49.826;6.004;2023-04-03T14:24:50;1.17;;;0.50;;
14247;SDS011;7208;49.826;6.004;2023-04-03T14:29:42;0.63;;;0.60;;
14247;SDS011;7208;49.826;6.004;2023-04-03T14:32:10;0.70;;;0.50;;
14247;SDS011;7208;49.826;6.004;2023-04-03T14:34:36;0.37;;;0.37;;
14247;SDS011;7208;49.826;6.004;2023-04-03T14:37:04;0.23;;;0.23;;
14247;SDS011;7208;49.826;6.004;2023-04-03T14:39:30;0.47;;;0.40;;
14247;SDS011;7208;49.826;6.004;2023-04-03T14:41:56;0.50;;;0.50;;
14247;SDS011;7208;49.826;6.004;2023-04-03T14:44:22;1.00;;;0.53;;
14247;SDS011;7208;49.826;6.004;2023-04-03T14:46:48;1.03;;;0.50;;
14247;SDS011;7208;49.826;6.004;2023-04-03T14:49:15;1.27;;;0.70;;
14247;SDS011;7208;49.826;6.004;2023-04-03T14:51:43;0.50;;;0.50;;
14247;SDS011;7208;49.826;6.004;2023-04-03T14:54:20;0.40;;;0.40;;
14247;SDS011;7208;49.826;6.004;2023-04-03T14:56:50;0.90;;;0.57;;
14247;SDS011;7208;49.826;6.004;2023-04-03T14:59:16;0.63;;;0.50;;
14247;SDS011;7208;49.826;6.004;2023-04-03T15:01:44;0.93;;;0.50;;
14247;SDS011;7208;49.826;6.004;2023-04-03T15:04:14;0.63;;;0.50;;
14247;SDS011;7208;49.826;6.004;2023-04-03T15:06:41;0.60;;;0.60;;
14247;SDS011;7208;49.826;6.004;2023-04-03T15:09:21;1.13;;;0.90;;
14247;SDS011;7208;49.826;6.004;2023-04-03T15:11:47;1.03;;;0.60;;
14247;SDS011;7208;49.826;6.004;2023-04-03T15:14:13;1.27;;;0.50;;
14247;SDS011;7208;49.826;6.004;2023-04-03T15:16:39;0.97;;;0.50;;
14247;SDS011;7208;49.826;6.004;2023-04-03T15:19:05;0.60;;;0.60;;
14247;SDS011;7208;49.826;6.004;2023-04-03T15:21:31;0.60;;;0.60;;
14247;SDS011;7208;49.826;6.004;2023-04-03T15:23:57;1.40;;;0.70;;
14247;SDS011;7208;49.826;6.004;2023-04-03T15:26:24;0.97;;;0.60;;
14247;SDS011;7208;49.826;6.004;2023-04-03T15:28:50;0.40;;;0.40;;
14247;SDS011;7208;49.826;6.004;2023-04-03T15:31:16;0.60;;;0.60;;
14247;SDS011;7208;49.826;6.004;2023-04-03T15:33:42;0.70;;;0.60;;
14247;SDS011;7208;49.826;6.004;2023-04-03T15:36:08;1.30;;;0.60;;
14247;SDS011;7208;49.826;6.004;2023-04-03T15:38:34;0.60;;;0.57;;
14247;SDS011;7208;49.826;6.004;2023-04-03T15:41:03;0.50;;;0.50;;
14247;SDS011;7208;49.826;6.004;2023-04-03T15:43:29;2.10;;;0.60;;
14247;SDS011;7208;49.826;6.004;2023-04-03T15:45:58;1.03;;;0.80;;
14247;SDS011;7208;49.826;6.004;2023-04-03T15:48:24;0.53;;;0.50;;
14247;SDS011;7208;49.826;6.004;2023-04-03T15:50:51;1.53;;;0.80;;
14247;SDS011;7208;49.826;6.004;2023-04-03T15:53:17;1.13;;;0.60;;
14247;SDS011;7208;49.826;6.004;2023-04-03T15:55:43;0.70;;;0.50;;
14247;SDS011;7208;49.826;6.004;2023-04-03T15:58:09;0.77;;;0.60;;
14247;SDS011;7208;49.826;6.004;2023-04-03T16:00:35;0.70;;;0.60;;
14247;SDS011;7208;49.826;6.004;2023-04-03T16:03:06;0.40;;;0.40;;
14247;SDS011;7208;49.826;6.004;2023-04-03T16:05:35;0.80;;;0.60;;
14247;SDS011;7208;49.826;6.004;2023-04-03T16:08:01;1.40;;;0.80;;
14247;SDS011;7208;49.826;6.004;2023-04-03T16:10:27;0.50;;;0.50;;
14247;SDS011;7208;49.826;6.004;2023-04-03T16:12:53;0.73;;;0.50;;
14247;SDS011;7208;49.826;6.004;2023-04-03T16:15:19;0.93;;;0.80;;
14247;SDS011;7208;49.826;6.004;2023-04-03T16:17:45;0.63;;;0.40;;
14247;SDS011;7208;49.826;6.004;2023-04-03T16:20:13;0.60;;;0.50;;
14247;SDS011;7208;49.826;6.004;2023-04-03T16:22:39;1.17;;;0.70;;
14247;SDS011;7208;49.826;6.004;2023-04-03T16:25:06;0.83;;;0.70;;
14247;SDS011;7208;49.826;6.004;2023-04-03T16:27:32;0.97;;;0.60;;
14247;SDS011;7208;49.826;6.004;2023-04-03T16:29:58;1.17;;;0.60;;
14247;SDS011;7208;49.826;6.004;2023-04-03T16:32:25;0.80;;;0.70;;
14247;SDS011;7208;49.826;6.004;2023-04-03T16:34:52;1.53;;;0.67;;
14247;SDS011;7208;49.826;6.004;2023-04-03T16:37:18;1.00;;;0.60;;
14247;SDS011;7208;49.826;6.004;2023-04-03T16:39:44;2.07;;;0.80;;
14247;SDS011;7208;49.826;6.004;2023-04-03T16:42:10;1.33;;;0.53;;
14247;SDS011;7208;49.826;6.004;2023-04-03T16:44:37;0.70;;;0.60;;
14247;SDS011;7208;49.826;6.004;2023-04-03T16:47:04;0.60;;;0.50;;
14247;SDS011;7208;49.826;6.004;2023-04-03T16:49:30;1.27;;;0.60;;
14247;SDS011;7208;49.826;6.004;2023-04-03T16:52:00;2.37;;;0.53;;
14247;SDS011;7208;49.826;6.004;2023-04-03T16:54:26;0.50;;;0.50;;
14247;SDS011;7208;49.826;6.004;2023-04-03T16:56:52;0.63;;;0.63;;
14247;SDS011;7208;49.826;6.004;2023-04-03T16:59:18;0.80;;;0.70;;
14247;SDS011;7208;49.826;6.004;2023-04-03T17:01:44;1.30;;;0.60;;